sensor_id;sensor_type;location;lat;lon;timestamp;P1;durP1;ratioP1;P2;durP2;ratioP2
21527;SDS011;10925;49.102;-0.370;2023-02-27T00:01:54;8.38;;;1.48;;
21527;SDS011;10925;49.102;-0.370;2023-02-27T00:04:21;10.45;;;1.63;;
21527;SDS011;10925;49.102;-0.370;2023-02-27T00:06:48;7.25;;;2.22;;
21527;SDS011;10925;49.102;-0.370;2023-02-27T00:09:15;2.25;;;1.02;;
21527;SDS011;10925;49.102;-0.370;2023-02-27T00:11:40;11.38;;;2.00;;
21527;SDS011;10925;49.102;-0.370;2023-02-27T00:14:09;4.22;;;1.50;;
21527;SDS011;10925;49.102;-0.370;2023-02-27T00:16:35;11.07;;;1.38;;
21527;SDS011;10925;49.102;-0.370;2023-02-27T00:19:02;9.65;;;1.35;;
21527;SDS011;10925;49.102;-0.370;2023-02-27T00:21:31;5.03;;;1.55;;
21527;SDS011;10925;49.102;-0.370;2023-02-27T00:23:59;4.30;;;1.33;;
21527;SDS011;10925;49.102;-0.370;2023-02-27T00:26:24;2.10;;;1.20;;
21527;SDS011;10925;49.102;-0.370;2023-02-27T00:28:50;5.45;;;1.40;;
21527;SDS011;10925;49.102;-0.370;2023-02-27T00:31:16;6.13;;;1.20;;
21527;SDS011;10925;49.102;-0.370;2023-02-27T00:33:41;5.85;;;1.30;;
21527;SDS011;10925;49.102;-0.370;2023-02-27T00:36:08;5.22;;;0.93;;
21527;SDS011;10925;49.102;-0.370;2023-02-27T00:38:35;5.78;;;1.23;;
21527;SDS011;10925;49.102;-0.370;2023-02-27T00:41:02;9.00;;;1.33;;
21527;SDS011;10925;49.102;-0.370;2023-02-27T00:43:29;5.10;;;1.27;;
21527;SDS011;10925;49.102;-0.370;2023-02-27T00:45:56;5.00;;;1.13;;
21527;SDS011;10925;49.102;-0.370;2023-02-27T00:48:23;3.20;;;1.05;;
21527;SDS011;10925;49.102;-0.370;2023-02-27T00:50:50;7.38;;;1.30;;
21527;SDS011;10925;49.102;-0.370;2023-02-27T00:53:17;4.60;;;1.00;;
21527;SDS011;10925;49.102;-0.370;2023-02-27T00:55:45;7.68;;;1.17;;
21527;SDS011;10925;49.102;-0.370;2023-02-27T00:58:12;4.32;;;0.95;;
21527;SDS011;10925;49.102;-0.370;2023-02-27T01:00:39;2.25;;;0.93;;
21527;SDS011;10925;49.102;-0.370;2023-02-27T01:03:05;3.72;;;1.00;;
21527;SDS011;10925;49.102;-0.370;2023-02-27T01:05:30;3.05;;;1.08;;
21527;SDS011;10925;49.102;-0.370;2023-02-27T01:07:58;4.68;;;0.90;;
21527;SDS011;10925;49.102;-0.370;2023-02-27T01:10:23;5.60;;;0.70;;
21527;SDS011;10925;49.102;-0.370;2023-02-27T01:12:51;3.72;;;1.05;;
21527;SDS011;10925;49.102;-0.370;2023-02-27T01:15:18;3.22;;;1.10;;
21527;SDS011;10925;49.102;-0.370;2023-02-27T01:17:43;23.85;;;5.38;;
21527;SDS011;10925;49.102;-0.370;2023-02-27T01:20:10;14.45;;;5.47;;
21527;SDS011;10925;49.102;-0.370;2023-02-27T01:22:37;40.60;;;8.98;;
21527;SDS011;10925;49.102;-0.370;2023-02-27T01:25:03;23.15;;;6.15;;
21527;SDS011;10925;49.102;-0.370;2023-02-27T01:27:30;12.13;;;3.50;;
21527;SDS011;10925;49.102;-0.370;2023-02-27T01:29:58;38.83;;;8.80;;
21527;SDS011;10925;49.102;-0.370;2023-02-27T01:32:25;9.25;;;3.05;;
21527;SDS011;10925;49.102;-0.370;2023-02-27T01:34:52;12.75;;;4.22;;
21527;SDS011;10925;49.102;-0.370;2023-02-27T01:37:18;65.93;;;16.42;;
21527;SDS011;10925;49.102;-0.370;2023-02-27T01:42:39;3.28;;;1.08;;
21527;SDS011;10925;49.102;-0.370;2023-02-27T01:47:43;8.52;;;2.08;;
21527;SDS011;10925;49.102;-0.370;2023-02-27T01:52:55;3.42;;;1.13;;
21527;SDS011;10925;49.102;-0.370;2023-02-27T01:55:21;3.78;;;1.30;;
21527;SDS011;10925;49.102;-0.370;2023-02-27T01:57:47;5.00;;;1.17;;
21527;SDS011;10925;49.102;-0.370;2023-02-27T02:00:14;2.67;;;0.88;;
21527;SDS011;10925;49.102;-0.370;2023-02-27T02:02:46;5.20;;;1.20;;
21527;SDS011;10925;49.102;-0.370;2023-02-27T02:05:15;3.70;;;1.10;;
21527;SDS011;10925;49.102;-0.370;2023-02-27T02:07:42;3.55;;;0.68;;
21527;SDS011;10925;49.102;-0.370;2023-02-27T02:10:10;4.75;;;1.52;;
21527;SDS011;10925;49.102;-0.370;2023-02-27T02:12:38;4.47;;;1.10;;
21527;SDS011;10925;49.102;-0.370;2023-02-27T02:15:07;3.80;;;0.93;;
21527;SDS011;10925;49.102;-0.370;2023-02-27T02:17:45;5.63;;;1.00;;
21527;SDS011;10925;49.102;-0.370;2023-02-27T02:28:14;6.13;;;1.60;;
21527;SDS011;10925;49.102;-0.370;2023-02-27T02:51:54;9.23;;;3.30;;
21527;SDS011;10925;49.102;-0.370;2023-02-27T02:54:33;5.60;;;1.90;;
21527;SDS011;10925;49.102;-0.370;2023-02-27T02:57:25;4.03;;;1.35;;
21527;SDS011;10925;49.102;-0.370;2023-02-27T03:02:17;8.93;;;1.50;;
21527;SDS011;10925;49.102;-0.370;2023-02-27T03:05:00;1.90;;;1.23;;
21527;SDS011;10925;49.102;-0.370;2023-02-27T03:07:31;5.80;;;2.70;;
21527;SDS011;10925;49.102;-0.370;2023-02-27T03:12:30;5.28;;;1.20;;
21527;SDS011;10925;49.102;-0.370;2023-02-27T03:15:05;7.25;;;1.60;;
21527;SDS011;10925;49.102;-0.370;2023-02-27T03:20:07;4.88;;;1.52;;
21527;SDS011;10925;49.102;-0.370;2023-02-27T03:22:37;3.22;;;1.50;;
21527;SDS011;10925;49.102;-0.370;2023-02-27T03:25:08;3.95;;;1.25;;
21527;SDS011;10925;49.102;-0.370;2023-02-27T03:27:36;1.33;;;0.80;;
21527;SDS011;10925;49.102;-0.370;2023-02-27T03:30:06;0.68;;;0.50;;
21527;SDS011;10925;49.102;-0.370;2023-02-27T03:35:10;6.17;;;1.80;;
21527;SDS011;10925;49.102;-0.370;2023-02-27T03:42:53;7.18;;;1.30;;
21527;SDS011;10925;49.102;-0.370;2023-02-27T03:47:50;1.65;;;1.10;;
21527;SDS011;10925;49.102;-0.370;2023-02-27T03:50:17;5.53;;;1.42;;
21527;SDS011;10925;49.102;-0.370;2023-02-27T03:52:43;2.50;;;1.00;;
21527;SDS011;10925;49.102;-0.370;2023-02-27T03:55:13;2.30;;;1.27;;
21527;SDS011;10925;49.102;-0.370;2023-02-27T03:57:40;3.40;;;0.90;;
21527;SDS011;10925;49.102;-0.370;2023-02-27T04:00:08;4.90;;;1.20;;
21527;SDS011;10925;49.102;-0.370;2023-02-27T04:02:40;5.40;;;1.25;;
21527;SDS011;10925;49.102;-0.370;2023-02-27T04:05:06;6.90;;;1.15;;
21527;SDS011;10925;49.102;-0.370;2023-02-27T04:12:51;5.60;;;1.27;;
21527;SDS011;10925;49.102;-0.370;2023-02-27T04:20:43;14.02;;;2.55;;
21527;SDS011;10925;49.102;-0.370;2023-02-27T04:25:45;29.73;;;6.20;;
21527;SDS011;10925;49.102;-0.370;2023-02-27T04:31:01;5.50;;;1.63;;
21527;SDS011;10925;49.102;-0.370;2023-02-27T04:36:02;12.48;;;3.53;;
21527;SDS011;10925;49.102;-0.370;2023-02-27T04:38:48;12.20;;;3.42;;
21527;SDS011;10925;49.102;-0.370;2023-02-27T04:41:21;11.23;;;3.90;;
21527;SDS011;10925;49.102;-0.370;2023-02-27T04:43:49;7.32;;;3.13;;
21527;SDS011;10925;49.102;-0.370;2023-02-27T04:46:17;29.60;;;9.48;;
21527;SDS011;10925;49.102;-0.370;2023-02-27T04:51:19;32.78;;;11.93;;
21527;SDS011;10925;49.102;-0.370;2023-02-27T04:53:49;12.63;;;3.25;;
21527;SDS011;10925;49.102;-0.370;2023-02-27T04:56:26;6.88;;;1.70;;
21527;SDS011;10925;49.102;-0.370;2023-02-27T04:58:58;26.40;;;12.18;;
21527;SDS011;10925;49.102;-0.370;2023-02-27T05:01:37;20.73;;;11.00;;
21527;SDS011;10925;49.102;-0.370;2023-02-27T05:04:04;12.00;;;6.25;;
21527;SDS011;10925;49.102;-0.370;2023-02-27T05:06:33;28.80;;;12.70;;
21527;SDS011;10925;49.102;-0.370;2023-02-27T05:11:38;9.20;;;3.13;;
21527;SDS011;10925;49.102;-0.370;2023-02-27T05:14:11;7.95;;;3.25;;
21527;SDS011;10925;49.102;-0.370;2023-02-27T05:19:39;6.80;;;2.28;;
21527;SDS011;10925;49.102;-0.370;2023-02-27T05:24:48;5.22;;;2.05;;
21527;SDS011;10925;49.102;-0.370;2023-02-27T05:32:17;6.97;;;1.45;;
21527;SDS011;10925;49.102;-0.370;2023-02-27T05:40:39;6.00;;;1.30;;
21527;SDS011;10925;49.102;-0.370;2023-02-27T05:43:07;7.97;;;3.40;;
21527;SDS011;10925;49.102;-0.370;2023-02-27T05:45:35;6.85;;;4.13;;
21527;SDS011;10925;49.102;-0.370;2023-02-27T05:48:25;11.95;;;4.40;;
21527;SDS011;10925;49.102;-0.370;2023-02-27T05:50:53;5.10;;;3.15;;
21527;SDS011;10925;49.102;-0.370;2023-02-27T05:53:19;5.40;;;1.70;;
21527;SDS011;10925;49.102;-0.370;2023-02-27T05:58:24;3.63;;;1.60;;
21527;SDS011;10925;49.102;-0.370;2023-02-27T06:00:52;3.10;;;2.03;;
21527;SDS011;10925;49.102;-0.370;2023-02-27T06:03:18;6.15;;;2.28;;
21527;SDS011;10925;49.102;-0.370;2023-02-27T06:05:44;3.30;;;1.75;;
21527;SDS011;10925;49.102;-0.370;2023-02-27T06:08:10;4.53;;;1.85;;
21527;SDS011;10925;49.102;-0.370;2023-02-27T06:10:36;4.80;;;2.08;;
21527;SDS011;10925;49.102;-0.370;2023-02-27T06:13:02;1.58;;;1.15;;
21527;SDS011;10925;49.102;-0.370;2023-02-27T06:15:39;6.72;;;2.55;;
21527;SDS011;10925;49.102;-0.370;2023-02-27T06:18:08;3.85;;;2.03;;
21527;SDS011;10925;49.102;-0.370;2023-02-27T06:20:35;7.82;;;2.40;;
21527;SDS011;10925;49.102;-0.370;2023-02-27T06:23:03;6.03;;;2.70;;
21527;SDS011;10925;49.102;-0.370;2023-02-27T06:25:28;4.60;;;2.60;;
21527;SDS011;10925;49.102;-0.370;2023-02-27T06:27:55;9.73;;;2.95;;
21527;SDS011;10925;49.102;-0.370;2023-02-27T06:30:27;5.75;;;2.53;;
21527;SDS011;10925;49.102;-0.370;2023-02-27T06:32:53;7.88;;;3.20;;
21527;SDS011;10925;49.102;-0.370;2023-02-27T06:35:19;7.72;;;3.05;;
21527;SDS011;10925;49.102;-0.370;2023-02-27T06:37:46;35.40;;;12.02;;
21527;SDS011;10925;49.102;-0.370;2023-02-27T06:40:11;45.53;;;14.73;;
21527;SDS011;10925;49.102;-0.370;2023-02-27T06:42:40;20.88;;;8.32;;
21527;SDS011;10925;49.102;-0.370;2023-02-27T06:45:08;52.38;;;15.23;;
21527;SDS011;10925;49.102;-0.370;2023-02-27T06:47:35;36.85;;;12.20;;
21527;SDS011;10925;49.102;-0.370;2023-02-27T06:50:03;8.85;;;4.05;;
21527;SDS011;10925;49.102;-0.370;2023-02-27T06:52:34;25.83;;;8.75;;
21527;SDS011;10925;49.102;-0.370;2023-02-27T06:55:04;86.82;;;26.05;;
21527;SDS011;10925;49.102;-0.370;2023-02-27T06:57:29;42.25;;;18.15;;
21527;SDS011;10925;49.102;-0.370;2023-02-27T06:59:55;54.42;;;21.23;;
21527;SDS011;10925;49.102;-0.370;2023-02-27T07:02:21;72.63;;;24.08;;
21527;SDS011;10925;49.102;-0.370;2023-02-27T07:04:48;73.35;;;24.67;;
21527;SDS011;10925;49.102;-0.370;2023-02-27T07:07:13;47.28;;;16.52;;
21527;SDS011;10925;49.102;-0.370;2023-02-27T07:09:41;27.45;;;10.73;;
21527;SDS011;10925;49.102;-0.370;2023-02-27T07:12:12;10.95;;;4.45;;
21527;SDS011;10925;49.102;-0.370;2023-02-27T07:14:39;19.85;;;7.30;;
21527;SDS011;10925;49.102;-0.370;2023-02-27T07:17:06;10.48;;;3.58;;
21527;SDS011;10925;49.102;-0.370;2023-02-27T07:19:33;15.68;;;4.80;;
21527;SDS011;10925;49.102;-0.370;2023-02-27T07:22:02;30.60;;;10.05;;
21527;SDS011;10925;49.102;-0.370;2023-02-27T07:24:30;29.08;;;10.85;;
21527;SDS011;10925;49.102;-0.370;2023-02-27T07:27:02;47.33;;;15.60;;
21527;SDS011;10925;49.102;-0.370;2023-02-27T07:29:29;35.75;;;11.50;;
21527;SDS011;10925;49.102;-0.370;2023-02-27T07:31:57;36.40;;;12.18;;
21527;SDS011;10925;49.102;-0.370;2023-02-27T07:34:26;25.92;;;8.55;;
21527;SDS011;10925;49.102;-0.370;2023-02-27T07:36:51;30.98;;;10.07;;
21527;SDS011;10925;49.102;-0.370;2023-02-27T07:39:19;33.58;;;11.13;;
21527;SDS011;10925;49.102;-0.370;2023-02-27T07:41:46;24.30;;;7.82;;
21527;SDS011;10925;49.102;-0.370;2023-02-27T07:44:17;34.90;;;10.93;;
21527;SDS011;10925;49.102;-0.370;2023-02-27T07:47:03;21.60;;;7.63;;
21527;SDS011;10925;49.102;-0.370;2023-02-27T07:49:31;38.90;;;12.43;;
21527;SDS011;10925;49.102;-0.370;2023-02-27T07:52:14;31.05;;;10.35;;
21527;SDS011;10925;49.102;-0.370;2023-02-27T07:54:39;18.25;;;5.80;;
21527;SDS011;10925;49.102;-0.370;2023-02-27T07:57:05;19.67;;;7.00;;
21527;SDS011;10925;49.102;-0.370;2023-02-27T07:59:34;17.23;;;6.30;;
21527;SDS011;10925;49.102;-0.370;2023-02-27T08:02:01;4.95;;;2.67;;
21527;SDS011;10925;49.102;-0.370;2023-02-27T08:07:31;4.70;;;2.58;;
21527;SDS011;10925;49.102;-0.370;2023-02-27T08:09:58;6.55;;;2.50;;
21527;SDS011;10925;49.102;-0.370;2023-02-27T08:12:25;6.70;;;2.92;;
21527;SDS011;10925;49.102;-0.370;2023-02-27T08:14:55;7.65;;;3.22;;
21527;SDS011;10925;49.102;-0.370;2023-02-27T08:17:23;8.38;;;3.15;;
21527;SDS011;10925;49.102;-0.370;2023-02-27T08:19:55;7.15;;;3.03;;
21527;SDS011;10925;49.102;-0.370;2023-02-27T08:22:21;8.02;;;2.92;;
21527;SDS011;10925;49.102;-0.370;2023-02-27T08:24:49;6.90;;;3.67;;
21527;SDS011;10925;49.102;-0.370;2023-02-27T08:27:15;7.00;;;3.33;;
21527;SDS011;10925;49.102;-0.370;2023-02-27T08:29:40;17.00;;;6.28;;
21527;SDS011;10925;49.102;-0.370;2023-02-27T08:32:07;12.27;;;5.35;;
21527;SDS011;10925;49.102;-0.370;2023-02-27T08:34:54;18.10;;;7.35;;
21527;SDS011;10925;49.102;-0.370;2023-02-27T08:37:20;7.32;;;3.70;;
21527;SDS011;10925;49.102;-0.370;2023-02-27T08:39:45;9.32;;;4.28;;
21527;SDS011;10925;49.102;-0.370;2023-02-27T08:42:11;6.05;;;2.88;;
21527;SDS011;10925;49.102;-0.370;2023-02-27T08:44:36;10.23;;;4.70;;
21527;SDS011;10925;49.102;-0.370;2023-02-27T08:47:02;8.13;;;3.65;;
21527;SDS011;10925;49.102;-0.370;2023-02-27T08:49:29;4.60;;;2.72;;
21527;SDS011;10925;49.102;-0.370;2023-02-27T08:51:56;7.35;;;3.25;;
21527;SDS011;10925;49.102;-0.370;2023-02-27T08:54:23;6.88;;;4.22;;
21527;SDS011;10925;49.102;-0.370;2023-02-27T08:56:50;9.40;;;3.85;;
21527;SDS011;10925;49.102;-0.370;2023-02-27T08:59:16;5.63;;;2.78;;
21527;SDS011;10925;49.102;-0.370;2023-02-27T09:01:43;5.93;;;2.90;;
21527;SDS011;10925;49.102;-0.370;2023-02-27T09:04:10;12.27;;;3.30;;
21527;SDS011;10925;49.102;-0.370;2023-02-27T09:06:36;4.97;;;2.88;;
21527;SDS011;10925;49.102;-0.370;2023-02-27T09:09:02;6.82;;;2.30;;
21527;SDS011;10925;49.102;-0.370;2023-02-27T09:11:27;4.38;;;2.58;;
21527;SDS011;10925;49.102;-0.370;2023-02-27T09:13:55;8.90;;;3.78;;
21527;SDS011;10925;49.102;-0.370;2023-02-27T09:19:17;12.63;;;4.00;;
21527;SDS011;10925;49.102;-0.370;2023-02-27T09:21:43;25.55;;;7.85;;
21527;SDS011;10925;49.102;-0.370;2023-02-27T09:24:09;14.20;;;5.72;;
21527;SDS011;10925;49.102;-0.370;2023-02-27T09:26:34;11.18;;;4.65;;
21527;SDS011;10925;49.102;-0.370;2023-02-27T09:29:11;10.07;;;2.92;;
21527;SDS011;10925;49.102;-0.370;2023-02-27T09:31:38;9.57;;;3.50;;
21527;SDS011;10925;49.102;-0.370;2023-02-27T09:34:04;15.45;;;4.82;;
21527;SDS011;10925;49.102;-0.370;2023-02-27T09:36:29;11.32;;;4.72;;
21527;SDS011;10925;49.102;-0.370;2023-02-27T09:38:57;7.53;;;3.45;;
21527;SDS011;10925;49.102;-0.370;2023-02-27T09:47:05;14.65;;;5.25;;
21527;SDS011;10925;49.102;-0.370;2023-02-27T09:52:28;7.07;;;2.65;;
21527;SDS011;10925;49.102;-0.370;2023-02-27T09:54:56;3.55;;;1.40;;
21527;SDS011;10925;49.102;-0.370;2023-02-27T09:57:30;9.27;;;3.75;;
21527;SDS011;10925;49.102;-0.370;2023-02-27T10:00:03;5.82;;;3.17;;
21527;SDS011;10925;49.102;-0.370;2023-02-27T10:15:46;7.07;;;2.83;;
21527;SDS011;10925;49.102;-0.370;2023-02-27T10:18:30;7.07;;;2.70;;
21527;SDS011;10925;49.102;-0.370;2023-02-27T10:21:02;3.22;;;1.70;;
21527;SDS011;10925;49.102;-0.370;2023-02-27T10:23:35;7.43;;;3.28;;
21527;SDS011;10925;49.102;-0.370;2023-02-27T10:26:01;6.97;;;3.10;;
21527;SDS011;10925;49.102;-0.370;2023-02-27T10:28:27;12.95;;;3.20;;
21527;SDS011;10925;49.102;-0.370;2023-02-27T10:30:53;13.35;;;2.50;;
21527;SDS011;10925;49.102;-0.370;2023-02-27T10:35:48;9.02;;;2.20;;
21527;SDS011;10925;49.102;-0.370;2023-02-27T10:38:30;2.85;;;1.75;;
21527;SDS011;10925;49.102;-0.370;2023-02-27T10:40:56;3.55;;;2.10;;
21527;SDS011;10925;49.102;-0.370;2023-02-27T10:43:22;6.68;;;2.13;;
21527;SDS011;10925;49.102;-0.370;2023-02-27T10:45:48;4.60;;;2.40;;
21527;SDS011;10925;49.102;-0.370;2023-02-27T10:48:15;11.68;;;4.07;;
21527;SDS011;10925;49.102;-0.370;2023-02-27T10:50:43;4.68;;;1.95;;
21527;SDS011;10925;49.102;-0.370;2023-02-27T10:53:21;12.18;;;5.85;;
21527;SDS011;10925;49.102;-0.370;2023-02-27T10:58:17;12.53;;;7.43;;
21527;SDS011;10925;49.102;-0.370;2023-02-27T11:00:56;6.43;;;3.47;;
21527;SDS011;10925;49.102;-0.370;2023-02-27T11:03:24;8.50;;;3.00;;
21527;SDS011;10925;49.102;-0.370;2023-02-27T11:06:35;7.70;;;3.55;;
21527;SDS011;10925;49.102;-0.370;2023-02-27T11:08:36;4.17;;;2.43;;
21527;SDS011;10925;49.102;-0.370;2023-02-27T11:11:05;1.45;;;1.20;;
21527;SDS011;10925;49.102;-0.370;2023-02-27T11:13:33;4.03;;;1.67;;
21527;SDS011;10925;49.102;-0.370;2023-02-27T11:16:04;2.72;;;1.60;;
21527;SDS011;10925;49.102;-0.370;2023-02-27T11:18:32;6.72;;;2.05;;
21527;SDS011;10925;49.102;-0.370;2023-02-27T11:21:07;2.47;;;1.85;;
21527;SDS011;10925;49.102;-0.370;2023-02-27T11:23:33;6.55;;;2.30;;
21527;SDS011;10925;49.102;-0.370;2023-02-27T11:26:10;4.20;;;1.80;;
21527;SDS011;10925;49.102;-0.370;2023-02-27T11:28:35;5.88;;;2.08;;
21527;SDS011;10925;49.102;-0.370;2023-02-27T11:31:02;7.90;;;1.73;;
21527;SDS011;10925;49.102;-0.370;2023-02-27T11:33:35;3.55;;;2.42;;
21527;SDS011;10925;49.102;-0.370;2023-02-27T11:36:03;6.40;;;2.42;;
21527;SDS011;10925;49.102;-0.370;2023-02-27T11:38:28;2.17;;;1.50;;
21527;SDS011;10925;49.102;-0.370;2023-02-27T11:41:00;3.90;;;1.52;;
21527;SDS011;10925;49.102;-0.370;2023-02-27T11:43:46;5.15;;;1.80;;
21527;SDS011;10925;49.102;-0.370;2023-02-27T11:46:17;5.28;;;2.38;;
21527;SDS011;10925;49.102;-0.370;2023-02-27T11:48:48;5.30;;;2.40;;
21527;SDS011;10925;49.102;-0.370;2023-02-27T11:51:17;5.72;;;2.10;;
21527;SDS011;10925;49.102;-0.370;2023-02-27T11:56:12;3.30;;;1.63;;
21527;SDS011;10925;49.102;-0.370;2023-02-27T11:58:47;3.67;;;1.98;;
21527;SDS011;10925;49.102;-0.370;2023-02-27T12:01:17;3.17;;;1.63;;
21527;SDS011;10925;49.102;-0.370;2023-02-27T12:03:52;3.47;;;1.52;;
21527;SDS011;10925;49.102;-0.370;2023-02-27T12:06:22;3.83;;;1.70;;
21527;SDS011;10925;49.102;-0.370;2023-02-27T12:11:54;3.80;;;2.05;;
21527;SDS011;10925;49.102;-0.370;2023-02-27T12:14:31;6.32;;;2.38;;
21527;SDS011;10925;49.102;-0.370;2023-02-27T12:17:03;5.20;;;1.60;;
21527;SDS011;10925;49.102;-0.370;2023-02-27T12:22:23;2.53;;;1.75;;
21527;SDS011;10925;49.102;-0.370;2023-02-27T12:24:56;1.75;;;1.30;;
21527;SDS011;10925;49.102;-0.370;2023-02-27T12:27:24;3.03;;;1.70;;
21527;SDS011;10925;49.102;-0.370;2023-02-27T12:29:57;3.85;;;1.70;;
21527;SDS011;10925;49.102;-0.370;2023-02-27T12:32:38;2.50;;;1.75;;
21527;SDS011;10925;49.102;-0.370;2023-02-27T12:40:36;10.82;;;2.80;;
21527;SDS011;10925;49.102;-0.370;2023-02-27T12:56:19;10.32;;;3.53;;
21527;SDS011;10925;49.102;-0.370;2023-02-27T13:06:26;4.78;;;2.30;;
21527;SDS011;10925;49.102;-0.370;2023-02-27T13:14:01;3.25;;;2.10;;
21527;SDS011;10925;49.102;-0.370;2023-02-27T13:16:42;3.55;;;2.08;;
21527;SDS011;10925;49.102;-0.370;2023-02-27T13:21:35;3.38;;;2.17;;
21527;SDS011;10925;49.102;-0.370;2023-02-27T13:24:10;4.70;;;2.08;;
21527;SDS011;10925;49.102;-0.370;2023-02-27T13:26:44;4.78;;;1.92;;
21527;SDS011;10925;49.102;-0.370;2023-02-27T13:29:13;6.65;;;2.05;;
21527;SDS011;10925;49.102;-0.370;2023-02-27T13:34:33;5.55;;;2.47;;
21527;SDS011;10925;49.102;-0.370;2023-02-27T13:37:01;5.07;;;2.33;;
21527;SDS011;10925;49.102;-0.370;2023-02-27T13:39:49;9.48;;;1.52;;
21527;SDS011;10925;49.102;-0.370;2023-02-27T13:44:56;4.18;;;2.00;;
21527;SDS011;10925;49.102;-0.370;2023-02-27T13:50:02;3.58;;;1.95;;
21527;SDS011;10925;49.102;-0.370;2023-02-27T13:52:30;7.40;;;2.08;;
21527;SDS011;10925;49.102;-0.370;2023-02-27T13:54:56;3.45;;;2.38;;
21527;SDS011;10925;49.102;-0.370;2023-02-27T13:57:36;3.47;;;2.17;;
21527;SDS011;10925;49.102;-0.370;2023-02-27T14:00:05;2.47;;;1.27;;
21527;SDS011;10925;49.102;-0.370;2023-02-27T14:02:42;7.53;;;2.00;;
21527;SDS011;10925;49.102;-0.370;2023-02-27T14:05:42;4.70;;;2.45;;
21527;SDS011;10925;49.102;-0.370;2023-02-27T14:08:18;7.13;;;2.28;;
21527;SDS011;10925;49.102;-0.370;2023-02-27T14:16:01;4.25;;;2.25;;
21527;SDS011;10925;49.102;-0.370;2023-02-27T14:18:47;4.30;;;1.88;;
21527;SDS011;10925;49.102;-0.370;2023-02-27T14:23:42;4.57;;;2.33;;
21527;SDS011;10925;49.102;-0.370;2023-02-27T14:26:15;4.53;;;2.40;;
21527;SDS011;10925;49.102;-0.370;2023-02-27T14:28:45;3.65;;;2.50;;
21527;SDS011;10925;49.102;-0.370;2023-02-27T14:31:20;4.68;;;2.03;;
21527;SDS011;10925;49.102;-0.370;2023-02-27T14:33:47;3.05;;;1.80;;
21527;SDS011;10925;49.102;-0.370;2023-02-27T14:36:57;6.25;;;2.83;;
21527;SDS011;10925;49.102;-0.370;2023-02-27T14:39:03;4.25;;;2.65;;
21527;SDS011;10925;49.102;-0.370;2023-02-27T14:44:18;6.20;;;2.80;;
21527;SDS011;10925;49.102;-0.370;2023-02-27T14:50:01;4.15;;;3.15;;
21527;SDS011;10925;49.102;-0.370;2023-02-27T14:52:29;5.35;;;2.25;;
21527;SDS011;10925;49.102;-0.370;2023-02-27T14:55:13;5.30;;;2.15;;
21527;SDS011;10925;49.102;-0.370;2023-02-27T14:57:52;5.57;;;2.83;;
21527;SDS011;10925;49.102;-0.370;2023-02-27T15:00:39;5.47;;;2.45;;
21527;SDS011;10925;49.102;-0.370;2023-02-27T15:06:16;6.60;;;3.22;;
21527;SDS011;10925;49.102;-0.370;2023-02-27T15:08:46;6.47;;;2.28;;
21527;SDS011;10925;49.102;-0.370;2023-02-27T15:11:15;5.38;;;2.50;;
21527;SDS011;10925;49.102;-0.370;2023-02-27T15:13:43;3.78;;;1.88;;
21527;SDS011;10925;49.102;-0.370;2023-02-27T15:19:32;7.40;;;3.25;;
21527;SDS011;10925;49.102;-0.370;2023-02-27T15:21:59;3.47;;;2.05;;
21527;SDS011;10925;49.102;-0.370;2023-02-27T15:24:29;5.30;;;3.45;;
21527;SDS011;10925;49.102;-0.370;2023-02-27T15:27:15;5.70;;;3.53;;
21527;SDS011;10925;49.102;-0.370;2023-02-27T15:29:42;4.68;;;3.08;;
21527;SDS011;10925;49.102;-0.370;2023-02-27T15:32:25;8.25;;;3.65;;
21527;SDS011;10925;49.102;-0.370;2023-02-27T15:34:51;6.07;;;2.42;;
21527;SDS011;10925;49.102;-0.370;2023-02-27T15:37:21;5.72;;;2.90;;
21527;SDS011;10925;49.102;-0.370;2023-02-27T15:39:47;7.55;;;2.63;;
21527;SDS011;10925;49.102;-0.370;2023-02-27T15:42:15;2.95;;;2.38;;
21527;SDS011;10925;49.102;-0.370;2023-02-27T15:44:42;5.90;;;2.13;;
21527;SDS011;10925;49.102;-0.370;2023-02-27T15:47:11;7.15;;;2.97;;
21527;SDS011;10925;49.102;-0.370;2023-02-27T15:49:40;3.88;;;2.15;;
21527;SDS011;10925;49.102;-0.370;2023-02-27T15:52:14;4.85;;;2.15;;
21527;SDS011;10925;49.102;-0.370;2023-02-27T15:54:51;4.97;;;2.70;;
21527;SDS011;10925;49.102;-0.370;2023-02-27T15:59:42;2.90;;;2.03;;
21527;SDS011;10925;49.102;-0.370;2023-02-27T16:02:13;6.10;;;2.85;;
21527;SDS011;10925;49.102;-0.370;2023-02-27T16:04:40;3.65;;;2.55;;
21527;SDS011;10925;49.102;-0.370;2023-02-27T16:10:17;7.45;;;3.40;;
21527;SDS011;10925;49.102;-0.370;2023-02-27T16:12:45;8.30;;;3.45;;
21527;SDS011;10925;49.102;-0.370;2023-02-27T16:15:25;3.60;;;2.28;;
21527;SDS011;10925;49.102;-0.370;2023-02-27T16:20:37;4.38;;;2.63;;
21527;SDS011;10925;49.102;-0.370;2023-02-27T16:23:06;3.42;;;2.35;;
21527;SDS011;10925;49.102;-0.370;2023-02-27T16:25:39;6.03;;;2.95;;
21527;SDS011;10925;49.102;-0.370;2023-02-27T16:28:04;8.90;;;3.85;;
21527;SDS011;10925;49.102;-0.370;2023-02-27T16:30:35;7.53;;;3.53;;
21527;SDS011;10925;49.102;-0.370;2023-02-27T16:33:01;6.10;;;3.13;;
21527;SDS011;10925;49.102;-0.370;2023-02-27T16:35:26;9.18;;;3.53;;
21527;SDS011;10925;49.102;-0.370;2023-02-27T16:37:58;4.55;;;2.92;;
21527;SDS011;10925;49.102;-0.370;2023-02-27T16:40:27;4.60;;;2.83;;
21527;SDS011;10925;49.102;-0.370;2023-02-27T16:42:55;4.80;;;2.55;;
21527;SDS011;10925;49.102;-0.370;2023-02-27T16:45:24;5.35;;;3.20;;
21527;SDS011;10925;49.102;-0.370;2023-02-27T16:47:53;7.95;;;3.13;;
21527;SDS011;10925;49.102;-0.370;2023-02-27T16:52:46;3.70;;;1.80;;
21527;SDS011;10925;49.102;-0.370;2023-02-27T16:55:13;3.42;;;2.15;;
21527;SDS011;10925;49.102;-0.370;2023-02-27T16:57:38;6.85;;;2.65;;
21527;SDS011;10925;49.102;-0.370;2023-02-27T17:00:06;12.55;;;2.63;;
21527;SDS011;10925;49.102;-0.370;2023-02-27T17:02:34;3.38;;;2.42;;
21527;SDS011;10925;49.102;-0.370;2023-02-27T17:05:00;5.90;;;2.85;;
21527;SDS011;10925;49.102;-0.370;2023-02-27T17:07:28;5.57;;;2.40;;
21527;SDS011;10925;49.102;-0.370;2023-02-27T17:09:56;3.60;;;2.35;;
21527;SDS011;10925;49.102;-0.370;2023-02-27T17:12:21;6.72;;;3.78;;
21527;SDS011;10925;49.102;-0.370;2023-02-27T17:14:49;5.35;;;2.25;;
21527;SDS011;10925;49.102;-0.370;2023-02-27T17:17:16;5.35;;;2.97;;
21527;SDS011;10925;49.102;-0.370;2023-02-27T17:19:41;7.13;;;2.70;;
21527;SDS011;10925;49.102;-0.370;2023-02-27T17:22:08;4.70;;;2.15;;
21527;SDS011;10925;49.102;-0.370;2023-02-27T17:27:38;2.60;;;1.80;;
21527;SDS011;10925;49.102;-0.370;2023-02-27T17:30:05;8.73;;;2.88;;
21527;SDS011;10925;49.102;-0.370;2023-02-27T17:32:33;4.57;;;2.25;;
21527;SDS011;10925;49.102;-0.370;2023-02-27T17:35:00;10.35;;;2.25;;
21527;SDS011;10925;49.102;-0.370;2023-02-27T17:37:25;11.88;;;4.15;;
21527;SDS011;10925;49.102;-0.370;2023-02-27T17:39:51;4.38;;;2.90;;
21527;SDS011;10925;49.102;-0.370;2023-02-27T17:42:16;8.00;;;3.88;;
21527;SDS011;10925;49.102;-0.370;2023-02-27T17:44:47;7.22;;;2.80;;
21527;SDS011;10925;49.102;-0.370;2023-02-27T17:47:15;6.00;;;2.95;;
21527;SDS011;10925;49.102;-0.370;2023-02-27T17:49:45;3.10;;;2.05;;
21527;SDS011;10925;49.102;-0.370;2023-02-27T17:52:12;4.00;;;2.28;;
21527;SDS011;10925;49.102;-0.370;2023-02-27T17:54:39;3.85;;;1.95;;
21527;SDS011;10925;49.102;-0.370;2023-02-27T17:57:06;6.97;;;2.33;;
21527;SDS011;10925;49.102;-0.370;2023-02-27T17:59:36;6.95;;;2.63;;
21527;SDS011;10925;49.102;-0.370;2023-02-27T18:02:03;3.72;;;2.22;;
21527;SDS011;10925;49.102;-0.370;2023-02-27T18:04:30;2.70;;;2.00;;
21527;SDS011;10925;49.102;-0.370;2023-02-27T18:06:56;5.57;;;1.95;;
21527;SDS011;10925;49.102;-0.370;2023-02-27T18:09:21;5.53;;;2.65;;
21527;SDS011;10925;49.102;-0.370;2023-02-27T18:11:50;5.32;;;2.25;;
21527;SDS011;10925;49.102;-0.370;2023-02-27T18:14:18;6.63;;;2.50;;
21527;SDS011;10925;49.102;-0.370;2023-02-27T18:19:49;6.03;;;2.53;;
21527;SDS011;10925;49.102;-0.370;2023-02-27T18:22:14;8.68;;;2.65;;